Time;durP1;ratioP1;P1;durP2;ratioP2;P2;SDS_P1;SDS_P2;PMS_P1;PMS_P2;Temp;Humidity;BMP_temperature;BMP_pressure;BME280_temperature;BME280_humidity;BME280_pressure;Samples;Min_cycle;Max_cycle;Signal;HPM_P1;HPM_P2
2022/12/21 00:02:04;;;;;;;219.27;40.13;;;7.60;95.10;;;;;;5021852;28;20407;-88
2022/12/21 00:04:30;;;;;;;237.57;41.78;;;7.50;95.10;;;;;;5005440;28;20407;-88
2022/12/21 00:06:56;;;;;;;333.73;47.38;;;7.50;95.20;;;;;;5005343;28;20416;-88
2022/12/21 00:09:23;;;;;;;295.27;41.70;;;7.70;95.10;;;;;;5005753;28;20393;-87
2022/12/21 00:11:49;;;;;;;315.83;41.70;;;7.50;95.10;;;;;;5021245;28;20491;-86
2022/12/21 00:14:15;;;;;;;271.30;38.95;;;7.50;95.10;;;;;;5004923;28;20956;-86
2022/12/21 00:16:42;;;;;;;267.52;39.45;;;7.40;95.10;;;;;;5005266;28;20948;-87
2022/12/21 00:19:07;;;;;;;330.70;41.60;;;7.40;95.10;;;;;;5021854;28;20451;-87
2022/12/21 00:21:36;;;;;;;263.77;37.50;;;7.50;95.10;;;;;;4989326;28;20912;-87
2022/12/21 00:24:02;;;;;;;224.82;36.08;;;7.40;95.10;;;;;;5021966;28;20409;-87
2022/12/21 00:26:33;;;;;;;209.18;37.63;;;7.30;95.10;;;;;;5005071;28;20419;-87
2022/12/21 00:28:59;;;;;;;180.77;37.33;;;7.30;95.00;;;;;;5000513;28;20397;-88
2022/12/21 00:31:33;;;;;;;138.70;35.55;;;7.30;95.10;;;;;;4989199;28;20421;-88
2022/12/21 00:33:59;;;;;;;193.18;36.53;;;7.20;94.90;;;;;;4988396;28;20454;-89
2022/12/21 00:36:27;;;;;;;176.30;35.33;;;7.20;95.00;;;;;;5004935;28;20497;-87
2022/12/21 00:38:53;;;;;;;116.80;33.85;;;7.20;95.00;;;;;;5005107;28;20409;-87
2022/12/21 00:41:21;;;;;;;160.07;38.92;;;7.10;95.10;;;;;;5004403;28;20471;-88
2022/12/21 00:43:48;;;;;;;98.60;30.80;;;7.00;95.20;;;;;;5005282;28;20844;-86
2022/12/21 00:46:14;;;;;;;84.75;29.98;;;7.20;95.10;;;;;;5005034;28;20463;-87
2022/12/21 00:48:40;;;;;;;115.72;34.60;;;7.00;94.90;;;;;;5005300;28;20512;-87
2022/12/21 00:51:11;;;;;;;122.05;33.28;;;6.90;94.80;;;;;;5004463;28;21069;-88
2022/12/21 00:53:37;;;;;;;88.28;33.05;;;6.80;94.90;;;;;;5020619;28;20409;-88
2022/12/21 00:56:05;;;;;;;127.88;36.90;;;6.80;94.90;;;;;;5004648;28;20439;-88
2022/12/21 00:58:32;;;;;;;220.90;38.80;;;6.80;95.10;;;;;;5004348;28;20499;-87
2022/12/21 01:01:03;;;;;;;77.85;30.63;;;6.80;95.00;;;;;;4988395;28;20409;-87
2022/12/21 01:03:28;;;;;;;95.37;29.97;;;7.10;94.90;;;;;;5004115;28;20409;-87
2022/12/21 01:05:54;;;;;;;105.00;29.97;;;6.70;94.90;;;;;;4988833;28;20409;-88
2022/12/21 01:08:22;;;;;;;85.30;28.50;;;6.70;94.90;;;;;;5020452;28;20412;-88
2022/12/21 01:10:47;;;;;;;100.03;29.73;;;6.70;94.90;;;;;;4988642;28;20945;-88
2022/12/21 01:13:15;;;;;;;98.00;29.93;;;6.50;94.80;;;;;;5004909;28;20452;-87
2022/12/21 01:15:41;;;;;;;127.85;30.42;;;6.50;94.90;;;;;;5020954;28;20428;-88
2022/12/21 01:18:08;;;;;;;121.32;29.52;;;6.50;95.10;;;;;;5004547;28;20466;-87
2022/12/21 01:20:33;;;;;;;145.23;30.27;;;6.40;95.20;;;;;;5004278;28;20420;-88
2022/12/21 01:22:59;;;;;;;171.88;33.88;;;6.40;95.20;;;;;;5004642;28;20405;-87
2022/12/21 01:25:24;;;;;;;173.03;33.57;;;6.40;95.20;;;;;;5003594;28;20421;-88
2022/12/21 01:27:50;;;;;;;204.48;31.83;;;6.40;95.30;;;;;;5004633;28;20753;-88
2022/12/21 01:30:16;;;;;;;212.00;31.77;;;6.40;95.30;;;;;;5003784;28;20417;-87
2022/12/21 01:32:41;;;;;;;209.00;32.77;;;6.30;95.30;;;;;;5003992;28;20984;-88
2022/12/21 01:35:07;;;;;;;153.33;31.23;;;6.30;95.30;;;;;;5003851;28;20904;-87
2022/12/21 01:37:33;;;;;;;183.52;30.88;;;6.30;95.40;;;;;;5003387;28;20432;-87
2022/12/21 01:40:01;;;;;;;150.95;30.75;;;6.30;95.40;;;;;;5004601;28;20413;-88
2022/12/21 01:42:27;;;;;;;211.70;31.17;;;6.30;95.40;;;;;;5020089;28;20789;-88
2022/12/21 01:44:59;;;;;;;138.95;30.98;;;6.30;95.30;;;;;;5004307;28;20409;-88
2022/12/21 01:47:32;;;;;;;140.32;31.35;;;6.20;95.80;;;;;;5003448;28;20452;-89
2022/12/21 01:50:03;;;;;;;176.95;32.00;;;6.20;95.70;;;;;;5004206;28;20440;-87
2022/12/21 01:52:30;;;;;;;183.38;33.28;;;6.30;95.60;;;;;;4987835;28;20416;-88
2022/12/21 01:55:04;;;;;;;159.33;30.93;;;6.20;95.50;;;;;;4987340;28;20451;-87
2022/12/21 01:57:32;;;;;;;162.98;33.45;;;6.30;95.60;;;;;;5004675;28;20920;-88
2022/12/21 01:59:59;;;;;;;150.65;32.22;;;6.20;95.60;;;;;;4987045;28;20436;-89
2022/12/21 02:02:49;;;;;;;150.02;30.17;;;6.30;95.60;;;;;;5003934;28;20409;-89
2022/12/21 02:05:28;;;;;;;205.95;33.95;;;6.20;95.50;;;;;;5003993;28;20412;-88
2022/12/21 02:07:57;;;;;;;160.63;31.63;;;6.20;95.40;;;;;;5003686;28;20417;-89
2022/12/21 02:10:22;;;;;;;150.43;30.35;;;6.20;95.60;;;;;;5003813;28;20811;-87
2022/12/21 02:12:52;;;;;;;262.20;36.42;;;6.20;95.50;;;;;;5003427;28;20409;-89
2022/12/21 02:15:21;;;;;;;188.18;34.90;;;6.20;95.40;;;;;;4987661;28;20448;-89
2022/12/21 02:18:05;;;;;;;172.05;33.88;;;6.20;95.70;;;;;;5020053;28;20409;-90
2022/12/21 02:20:55;;;;;;;166.27;32.15;;;6.20;95.60;;;;;;4987389;28;20504;-88
2022/12/21 02:23:44;;;;;;;128.88;28.92;;;6.20;95.60;;;;;;5003696;28;20421;-89
2022/12/21 02:26:22;;;;;;;135.00;28.58;;;6.10;95.50;;;;;;5003420;28;20460;-88
2022/12/21 02:29:06;;;;;;;141.88;31.08;;;6.10;95.50;;;;;;5020234;28;20451;-88
2022/12/21 02:31:37;;;;;;;178.50;32.13;;;6.10;95.60;;;;;;5003302;28;20481;-89
2022/12/21 02:34:30;;;;;;;144.32;31.42;;;6.10;95.60;;;;;;5003157;28;20419;-88
2022/12/21 02:37:29;;;;;;;142.07;29.50;;;6.10;95.80;;;;;;5005411;28;20437;-89
2022/12/21 02:40:03;;;;;;;147.88;32.33;;;6.20;95.70;;;;;;4956862;28;20409;-88
2022/12/21 02:46:05;;;;;;;106.80;25.70;;;6.10;95.70;;;;;;4951396;28;20427;-89
2022/12/21 02:48:50;;;;;;;171.05;27.73;;;6.10;95.80;;;;;;5008028;28;20811;-88
2022/12/21 02:51:22;;;;;;;174.60;30.15;;;6.10;95.80;;;;;;5007369;28;20413;-89
2022/12/21 02:53:49;;;;;;;122.07;25.42;;;6.00;95.80;;;;;;5008022;28;20456;-88
2022/12/21 02:56:17;;;;;;;111.85;25.65;;;6.00;95.80;;;;;;5006663;28;20466;-88
2022/12/21 02:58:42;;;;;;;162.90;28.38;;;6.10;95.80;;;;;;5024283;28;20826;-89
2022/12/21 03:01:32;;;;;;;183.77;29.00;;;6.10;96.10;;;;;;5023298;28;20494;-89
2022/12/21 03:04:19;;;;;;;170.00;28.92;;;6.00;95.80;;;;;;5007237;28;20822;-88
2022/12/21 03:06:48;;;;;;;127.03;26.80;;;6.00;95.80;;;;;;5007285;28;20994;-89
2022/12/21 03:09:33;;;;;;;104.93;24.80;;;6.00;95.80;;;;;;5013524;28;20437;-88
2022/12/21 03:12:23;;;;;;;96.20;23.75;;;6.00;95.80;;;;;;5027182;28;20418;-89
2022/12/21 03:15:11;;;;;;;96.00;21.90;;;6.00;95.70;;;;;;5026655;28;20441;-89
2022/12/21 03:17:43;;;;;;;85.25;22.52;;;6.00;95.70;;;;;;5025838;28;20431;-88
2022/12/21 03:20:17;;;;;;;161.25;24.50;;;6.00;95.70;;;;;;5043744;28;20419;-89
2022/12/21 03:22:52;;;;;;;106.68;23.70;;;6.00;95.60;;;;;;5025822;28;20415;-87
2022/12/21 03:25:31;;;;;;;169.75;25.20;;;6.00;95.60;;;;;;5026126;28;20415;-88
2022/12/21 03:28:03;;;;;;;101.53;22.00;;;6.00;95.70;;;;;;5026318;28;20443;-88
2022/12/21 03:30:32;;;;;;;150.82;24.02;;;6.00;95.70;;;;;;5042750;28;20402;-88
2022/12/21 03:33:01;;;;;;;159.70;25.42;;;6.00;95.70;;;;;;5027173;28;20770;-87
2022/12/21 03:35:32;;;;;;;142.67;22.63;;;6.00;95.70;;;;;;5025163;28;20445;-87
2022/12/21 03:38:01;;;;;;;162.05;23.85;;;6.00;95.60;;;;;;5026354;28;20458;-88
2022/12/21 03:40:32;;;;;;;107.63;20.67;;;6.00;95.60;;;;;;5026297;28;20473;-88
2022/12/21 03:43:02;;;;;;;106.07;19.40;;;6.00;95.70;;;;;;5025769;28;20403;-88
2022/12/21 03:45:33;;;;;;;120.50;21.73;;;6.10;95.70;;;;;;5026095;28;20504;-89
2022/12/21 03:48:07;;;;;;;107.30;19.42;;;5.90;95.60;;;;;;5025358;28;20403;-88
2022/12/21 03:50:37;;;;;;;211.23;26.42;;;5.90;95.60;;;;;;5026279;28;20490;-88
2022/12/21 03:53:42;;;;;;;141.98;20.20;;;5.90;95.60;;;;;;5025881;28;20421;-87
2022/12/21 03:56:16;;;;;;;120.70;21.55;;;5.90;95.60;;;;;;5025402;28;20450;-87
2022/12/21 03:58:42;;;;;;;119.97;21.05;;;5.90;96.00;;;;;;5026219;28;20422;-87
2022/12/21 04:01:30;;;;;;;160.75;22.52;;;5.90;95.70;;;;;;5042028;28;20415;-88
2022/12/21 04:04:02;;;;;;;153.05;23.58;;;5.90;95.80;;;;;;5025600;28;20411;-89
2022/12/21 04:06:31;;;;;;;187.43;23.60;;;5.80;95.80;;;;;;5025121;28;20961;-87
2022/12/21 04:08:57;;;;;;;138.77;22.17;;;5.80;95.80;;;;;;5025846;28;20767;-88
2022/12/21 04:14:07;;;;;;;120.50;21.97;;;5.90;95.80;;;;;;5024911;28;20411;-90
2022/12/21 04:16:32;;;;;;;165.93;25.60;;;5.80;95.80;;;;;;5025711;28;20453;-88
2022/12/21 04:21:42;;;;;;;138.32;24.75;;;5.90;95.90;;;;;;5024973;28;20498;-88
2022/12/21 04:29:37;;;;;;;175.38;26.58;;;5.90;95.90;;;;;;5025439;28;20451;-87
2022/12/21 04:32:03;;;;;;;118.35;24.75;;;5.90;95.90;;;;;;5024980;28;20819;-88
2022/12/21 04:34:28;;;;;;;161.57;25.20;;;5.90;95.90;;;;;;5024992;28;20465;-89
2022/12/21 04:39:38;;;;;;;117.65;25.90;;;6.00;95.90;;;;;;5024630;28;20508;-89
2022/12/21 04:42:04;;;;;;;82.33;22.30;;;5.90;95.80;;;;;;5025673;28;20415;-89
2022/12/21 04:44:29;;;;;;;71.80;23.10;;;5.90;95.80;;;;;;5024048;28;20409;-89
2022/12/21 04:46:55;;;;;;;73.33;21.87;;;5.80;95.80;;;;;;5025326;28;20411;-88
2022/12/21 04:49:21;;;;;;;71.53;22.47;;;5.80;95.80;;;;;;5024811;28;20430;-88
2022/12/21 04:51:46;;;;;;;65.25;21.10;;;5.80;95.70;;;;;;5024930;28;20862;-88
2022/12/21 04:54:12;;;;;;;59.33;20.52;;;5.80;95.70;;;;;;5025394;28;20929;-89
2022/12/21 04:56:37;;;;;;;74.20;22.97;;;5.80;95.70;;;;;;5024398;28;20427;-88
2022/12/21 04:59:03;;;;;;;72.47;23.27;;;5.80;95.80;;;;;;5040469;28;20399;-89
2022/12/21 05:01:29;;;;;;;78.07;22.43;;;5.80;95.80;;;;;;5023907;28;20423;-89
2022/12/21 05:03:56;;;;;;;66.73;21.87;;;5.80;95.90;;;;;;5025200;28;20407;-89
2022/12/21 05:06:22;;;;;;;76.88;23.13;;;5.80;95.80;;;;;;5024223;28;20494;-88
2022/12/21 05:08:48;;;;;;;91.45;25.02;;;5.90;95.90;;;;;;5024328;28;20560;-88
2022/12/21 05:11:20;;;;;;;90.68;24.60;;;6.00;95.90;;;;;;5024400;28;20419;-89
2022/12/21 05:13:46;;;;;;;98.03;25.10;;;5.90;95.90;;;;;;5024751;28;20422;-89
2022/12/21 05:16:15;;;;;;;69.45;23.75;;;5.90;95.90;;;;;;5024598;28;20578;-88
2022/12/21 05:18:41;;;;;;;83.37;25.90;;;5.90;95.90;;;;;;5040228;28;20787;-88
2022/12/21 05:21:06;;;;;;;86.17;25.80;;;5.90;95.90;;;;;;5041361;28;20407;-88
2022/12/21 05:23:33;;;;;;;71.57;24.30;;;5.90;95.90;;;;;;5023945;28;20490;-88
2022/12/21 05:26:01;;;;;;;80.07;23.65;;;5.90;95.90;;;;;;5024342;28;20434;-88
2022/12/21 05:28:27;;;;;;;150.65;29.20;;;5.90;95.90;;;;;;5024499;28;20755;-88
2022/12/21 05:30:53;;;;;;;76.80;24.80;;;5.90;95.80;;;;;;5024057;28;20399;-88
2022/12/21 05:33:19;;;;;;;92.40;25.97;;;6.10;95.90;;;;;;5024029;28;20434;-88
2022/12/21 05:35:45;;;;;;;89.55;25.50;;;5.90;95.80;;;;;;5023429;28;20479;-89
2022/12/21 05:38:11;;;;;;;108.53;26.43;;;5.80;95.80;;;;;;5023845;28;20450;-87
2022/12/21 05:40:37;;;;;;;87.20;25.25;;;5.80;95.80;;;;;;5023471;28;20445;-88
2022/12/21 05:43:03;;;;;;;101.75;23.88;;;5.80;95.80;;;;;;5040583;28;20411;-88
2022/12/21 05:45:29;;;;;;;96.57;24.13;;;5.80;95.80;;;;;;5023055;28;20426;-88
2022/12/21 05:47:55;;;;;;;212.07;29.70;;;5.80;95.80;;;;;;5023680;28;20415;-89
2022/12/21 05:50:21;;;;;;;82.70;24.08;;;5.80;95.80;;;;;;5023963;28;20477;-88
2022/12/21 05:52:47;;;;;;;124.15;25.58;;;5.80;95.80;;;;;;5023616;28;20410;-88
2022/12/21 05:55:13;;;;;;;135.77;25.25;;;5.80;95.80;;;;;;5040178;28;20403;-88
2022/12/21 05:57:38;;;;;;;127.80;25.17;;;5.80;95.80;;;;;;5039398;28;20794;-88
2022/12/21 06:00:05;;;;;;;129.30;27.93;;;5.80;95.80;;;;;;5024168;28;20439;-88
2022/12/21 06:02:31;;;;;;;116.30;26.27;;;5.80;95.80;;;;;;5022869;28;20404;-88
2022/12/21 06:04:57;;;;;;;82.68;24.77;;;5.80;95.80;;;;;;5023456;28;20415;-88
2022/12/21 06:07:22;;;;;;;104.53;24.77;;;5.80;95.90;;;;;;5023289;28;20468;-89
2022/12/21 06:09:49;;;;;;;94.63;24.30;;;5.80;95.80;;;;;;5023599;28;20824;-88
2022/12/21 06:12:14;;;;;;;84.45;25.27;;;5.80;95.80;;;;;;5023378;28;20420;-88
2022/12/21 06:14:40;;;;;;;86.43;24.70;;;5.80;95.80;;;;;;5023559;28;20429;-88
2022/12/21 06:17:06;;;;;;;96.72;25.27;;;5.80;95.80;;;;;;5023361;28;21093;-88
2022/12/21 06:19:31;;;;;;;89.93;25.35;;;5.80;95.80;;;;;;5023135;28;20419;-88
2022/12/21 06:21:57;;;;;;;94.20;26.47;;;5.80;95.80;;;;;;5008550;28;20430;-89
2022/12/21 06:24:22;;;;;;;84.78;26.05;;;5.80;95.80;;;;;;4983527;28;20457;-87
2022/12/21 06:26:48;;;;;;;101.40;26.93;;;5.80;95.80;;;;;;4984637;28;20898;-89
2022/12/21 06:29:13;;;;;;;131.87;27.97;;;5.80;95.90;;;;;;4967859;28;20461;-88
2022/12/21 06:31:39;;;;;;;99.80;26.08;;;5.80;95.90;;;;;;4967772;28;20755;-89
2022/12/21 06:34:05;;;;;;;127.50;28.17;;;5.80;95.90;;;;;;4968135;28;20409;-88
2022/12/21 06:36:33;;;;;;;89.27;25.67;;;5.80;96.00;;;;;;4966467;28;20466;-89
2022/12/21 06:38:59;;;;;;;122.47;28.38;;;5.90;96.00;;;;;;4968718;28;20801;-89
2022/12/21 06:41:25;;;;;;;85.13;26.00;;;5.90;96.00;;;;;;4970283;28;20485;-89
2022/12/21 06:43:50;;;;;;;122.97;28.52;;;5.90;96.00;;;;;;4995105;28;20410;-90
2022/12/21 06:46:18;;;;;;;102.70;27.60;;;5.90;96.00;;;;;;4992527;28;20961;-89
2022/12/21 06:48:44;;;;;;;129.60;29.38;;;5.90;96.00;;;;;;4993403;28;21187;-90
2022/12/21 06:51:18;;;;;;;119.30;30.27;;;5.90;96.00;;;;;;5027534;28;20492;-89
2022/12/21 06:53:45;;;;;;;115.93;28.67;;;5.90;96.00;;;;;;5036075;28;20405;-88
2022/12/21 06:56:20;;;;;;;138.68;30.75;;;5.90;96.00;;;;;;5019883;28;20429;-88
2022/12/21 06:58:47;;;;;;;122.15;28.58;;;5.90;95.90;;;;;;5035344;28;20413;-88
2022/12/21 07:01:16;;;;;;;143.15;31.88;;;5.90;95.90;;;;;;5035831;28;20397;-88
2022/12/21 07:03:42;;;;;;;122.35;30.50;;;5.90;95.90;;;;;;5036190;28;20780;-88
2022/12/21 07:06:09;;;;;;;194.45;35.55;;;6.00;96.00;;;;;;4986092;28;21191;-89
2022/12/21 07:08:35;;;;;;;149.93;33.63;;;6.30;96.00;;;;;;4983632;28;20438;-90
2022/12/21 07:11:07;;;;;;;122.87;33.33;;;6.00;96.00;;;;;;4991349;28;20414;-88
2022/12/21 07:13:37;;;;;;;129.53;31.73;;;6.30;96.10;;;;;;4972551;28;20416;-88
2022/12/21 07:16:03;;;;;;;89.95;28.17;;;6.00;96.00;;;;;;5024077;28;20437;-88
2022/12/21 07:18:29;;;;;;;103.43;30.73;;;6.00;96.00;;;;;;5010300;28;20788;-88
2022/12/21 07:21:02;;;;;;;115.53;32.67;;;6.00;95.90;;;;;;4976946;28;20398;-89
2022/12/21 07:23:32;;;;;;;121.80;32.43;;;6.00;95.90;;;;;;4996645;28;20455;-90
2022/12/21 07:25:57;;;;;;;189.50;38.65;;;6.00;95.90;;;;;;4997126;28;20457;-89
2022/12/21 07:28:24;;;;;;;125.75;34.47;;;6.00;95.90;;;;;;5011795;28;20415;-91
2022/12/21 07:31:02;;;;;;;124.60;32.97;;;6.10;96.00;;;;;;4997213;28;20398;-89
2022/12/21 07:33:29;;;;;;;132.90;34.08;;;6.10;95.90;;;;;;5028798;28;20496;-89
2022/12/21 07:35:58;;;;;;;115.57;33.70;;;6.10;95.80;;;;;;4979122;28;20448;-89
2022/12/21 07:38:24;;;;;;;130.88;34.60;;;6.00;95.80;;;;;;4994983;28;20407;-89
2022/12/21 07:40:50;;;;;;;119.18;34.08;;;6.00;95.80;;;;;;4981359;28;20492;-89
2022/12/21 07:43:15;;;;;;;144.45;38.45;;;6.00;95.80;;;;;;4973705;28;20534;-87
2022/12/21 07:45:41;;;;;;;158.60;37.70;;;6.00;95.90;;;;;;4969609;28;20419;-87
2022/12/21 07:48:06;;;;;;;174.13;41.88;;;6.00;95.90;;;;;;4986834;28;20497;-87
2022/12/21 07:50:32;;;;;;;178.93;41.92;;;6.00;95.90;;;;;;4985323;28;20433;-88
2022/12/21 07:52:58;;;;;;;151.85;42.80;;;6.00;95.90;;;;;;4986668;28;20430;-87
2022/12/21 07:55:25;;;;;;;156.07;43.67;;;6.00;95.90;;;;;;4986178;28;20402;-88
2022/12/21 07:57:51;;;;;;;172.80;44.78;;;6.20;96.00;;;;;;4985691;28;20450;-88
2022/12/21 08:00:17;;;;;;;199.73;44.00;;;6.10;96.00;;;;;;4969772;28;20458;-87
2022/12/21 08:02:43;;;;;;;164.48;41.28;;;6.00;95.90;;;;;;4970031;28;20486;-88
2022/12/21 08:05:09;;;;;;;154.63;40.80;;;6.00;96.30;;;;;;4970177;28;20470;-88
2022/12/21 08:07:35;;;;;;;212.05;43.88;;;6.00;96.00;;;;;;4969915;28;20442;-89
2022/12/21 08:10:00;;;;;;;191.90;42.43;;;6.00;96.10;;;;;;4986848;28;20403;-88
2022/12/21 08:12:26;;;;;;;214.48;42.97;;;6.10;96.10;;;;;;4969628;28;20498;-88
2022/12/21 08:14:51;;;;;;;141.02;38.78;;;6.10;96.10;;;;;;4969882;28;20410;-87
2022/12/21 08:17:17;;;;;;;136.07;38.63;;;6.10;96.10;;;;;;4969755;28;20521;-90
2022/12/21 08:19:43;;;;;;;152.73;40.28;;;6.00;96.00;;;;;;4985744;28;20402;-88
2022/12/21 08:22:09;;;;;;;130.63;38.15;;;6.00;96.00;;;;;;4986154;28;20425;-88
2022/12/21 08:24:35;;;;;;;103.40;35.92;;;6.00;96.00;;;;;;4969655;28;20418;-87
2022/12/21 08:27:01;;;;;;;111.00;35.75;;;6.00;96.00;;;;;;4986457;28;20418;-87
2022/12/21 08:29:26;;;;;;;120.28;37.55;;;6.00;96.10;;;;;;4969136;28;20418;-88
2022/12/21 08:31:52;;;;;;;103.70;36.40;;;6.00;96.10;;;;;;4970501;28;20770;-88
2022/12/21 08:34:18;;;;;;;111.67;37.17;;;6.10;96.10;;;;;;4968944;28;20884;-88
2022/12/21 08:36:43;;;;;;;104.72;36.30;;;6.10;96.20;;;;;;4969280;28;20433;-88
2022/12/21 08:39:09;;;;;;;119.50;38.40;;;6.10;96.20;;;;;;4969318;28;20413;-88
2022/12/21 08:41:35;;;;;;;102.07;37.07;;;6.20;96.30;;;;;;4985571;28;21051;-88
2022/12/21 08:44:01;;;;;;;111.97;38.47;;;6.20;96.10;;;;;;4985249;28;20477;-88
2022/12/21 08:46:26;;;;;;;121.38;39.10;;;6.30;96.20;;;;;;4968822;28;20501;-87
2022/12/21 08:48:53;;;;;;;111.80;38.17;;;6.30;96.10;;;;;;4985674;28;20485;-89
2022/12/21 08:51:18;;;;;;;133.48;38.88;;;6.40;96.10;;;;;;4984818;28;20421;-88
2022/12/21 08:53:44;;;;;;;109.88;39.55;;;6.40;96.00;;;;;;4969378;28;20406;-88
2022/12/21 08:56:09;;;;;;;101.80;37.63;;;6.40;96.00;;;;;;4968951;28;20426;-88
2022/12/21 08:58:35;;;;;;;106.03;38.65;;;6.50;96.00;;;;;;4969075;28;20401;-88
2022/12/21 09:01:01;;;;;;;98.78;38.28;;;6.50;96.00;;;;;;4968883;28;20410;-87
2022/12/21 09:03:27;;;;;;;96.97;37.17;;;6.60;95.90;;;;;;4968869;28;20921;-88
2022/12/21 09:05:55;;;;;;;100.07;38.25;;;6.60;95.90;;;;;;4969280;28;20477;-87
2022/12/21 09:08:20;;;;;;;96.47;37.70;;;6.70;95.90;;;;;;4967875;28;20406;-90
2022/12/21 09:10:46;;;;;;;91.23;37.30;;;6.70;95.80;;;;;;4985681;28;20914;-88
2022/12/21 09:13:12;;;;;;;82.47;35.17;;;6.80;95.80;;;;;;4968811;28;20418;-88
2022/12/21 09:15:42;;;;;;;84.70;34.05;;;6.80;95.70;;;;;;4985085;28;20418;-89
2022/12/21 09:18:11;;;;;;;93.85;36.45;;;6.80;95.70;;;;;;4969102;28;20411;-88
2022/12/21 09:20:37;;;;;;;85.03;35.63;;;6.80;95.70;;;;;;4985018;28;20909;-89
2022/12/21 09:23:03;;;;;;;89.78;37.53;;;6.80;95.70;;;;;;4968678;28;20421;-89
2022/12/21 09:25:29;;;;;;;96.00;38.08;;;6.80;95.70;;;;;;4984342;28;20402;-90
2022/12/21 09:27:54;;;;;;;86.03;37.28;;;6.80;95.70;;;;;;4969046;28;20422;-89
2022/12/21 09:30:21;;;;;;;98.97;39.05;;;6.80;95.70;;;;;;4968794;28;21225;-88
2022/12/21 09:32:47;;;;;;;107.20;42.15;;;6.80;95.70;;;;;;4985176;28;20956;-89
2022/12/21 09:35:13;;;;;;;91.55;39.95;;;6.70;95.60;;;;;;4968884;28;20402;-89
2022/12/21 09:37:39;;;;;;;111.63;44.30;;;6.80;95.60;;;;;;4984720;28;20434;-89
2022/12/21 09:40:06;;;;;;;113.13;44.20;;;6.80;95.80;;;;;;4984901;28;20514;-88
2022/12/21 09:43:14;;;;;;;102.03;42.45;;;6.80;95.80;;;;;;4968184;28;20410;-89
2022/12/21 09:45:48;;;;;;;130.68;45.60;;;6.80;95.80;;;;;;4968318;28;20418;-89
2022/12/21 09:48:19;;;;;;;103.88;43.88;;;6.80;95.80;;;;;;4992510;28;20930;-89
2022/12/21 09:50:51;;;;;;;105.28;45.13;;;6.90;95.80;;;;;;4985884;28;20412;-90
2022/12/21 09:53:25;;;;;;;112.82;44.80;;;6.90;95.80;;;;;;5011561;28;20432;-89
2022/12/21 09:55:53;;;;;;;95.32;42.70;;;7.00;95.70;;;;;;4979326;28;20501;-89
2022/12/21 09:58:31;;;;;;;103.20;42.90;;;7.00;95.70;;;;;;5027321;28;20914;-89
2022/12/21 10:01:25;;;;;;;92.65;41.13;;;7.00;95.60;;;;;;5026057;28;21046;-89
2022/12/21 10:04:09;;;;;;;85.30;39.42;;;7.10;95.70;;;;;;4966866;28;20409;-90
2022/12/21 10:07:23;;;;;;;73.10;36.20;;;7.10;95.50;;;;;;5037604;28;20444;-90
2022/12/21 10:10:18;;;;;;;76.60;34.90;;;7.20;95.50;;;;;;4980523;28;20494;-90
2022/12/21 10:12:51;;;;;;;72.90;34.90;;;7.20;95.40;;;;;;4984602;28;20418;-89
2022/12/21 10:15:46;;;;;;;66.90;33.70;;;7.30;95.40;;;;;;4985340;28;20415;-90
2022/12/21 10:18:19;;;;;;;72.32;35.25;;;7.30;95.60;;;;;;4959504;28;20956;-88
2022/12/21 10:21:29;;;;;;;76.32;37.20;;;7.30;95.30;;;;;;4985157;28;20411;-90
2022/12/21 10:23:57;;;;;;;69.40;34.05;;;7.40;95.40;;;;;;4929528;29;20779;-90
2022/12/21 10:26:26;;;;;;;69.55;35.42;;;7.40;95.10;;;;;;4913061;29;20418;-89
2022/12/21 10:29:17;;;;;;;72.20;35.90;;;7.50;95.10;;;;;;4957877;28;20501;-89
2022/12/21 10:31:46;;;;;;;68.60;33.47;;;7.40;95.00;;;;;;4978964;28;20748;-89
2022/12/21 10:34:43;;;;;;;69.13;34.00;;;7.50;95.00;;;;;;4984474;28;20913;-89
2022/12/21 10:37:13;;;;;;;56.67;30.63;;;7.60;95.00;;;;;;4984239;28;20528;-89
2022/12/21 10:39:39;;;;;;;57.67;29.65;;;7.60;94.70;;;;;;4968176;28;20419;-91
2022/12/21 10:42:30;;;;;;;52.67;28.08;;;7.60;94.70;;;;;;4985145;28;20418;-90
2022/12/21 10:44:57;;;;;;;52.92;28.70;;;7.60;94.60;;;;;;4984204;28;20474;-88
2022/12/21 10:47:23;;;;;;;50.58;27.30;;;7.70;94.60;;;;;;4967826;28;20446;-91
2022/12/21 10:50:04;;;;;;;42.67;25.17;;;7.80;94.70;;;;;;4990442;28;20502;-89
2022/12/21 10:52:39;;;;;;;42.00;24.30;;;8.00;94.40;;;;;;5033483;28;20412;-89
2022/12/21 10:55:24;;;;;;;41.50;23.02;;;8.20;94.30;;;;;;5036804;28;20413;-90
2022/12/21 10:57:55;;;;;;;30.98;19.75;;;8.40;94.10;;;;;;5022025;28;20511;-90
2022/12/21 11:00:31;;;;;;;33.72;20.65;;;8.60;93.20;;;;;;5038086;28;20502;-89
2022/12/21 11:03:20;;;;;;;36.65;19.33;;;8.70;93.10;;;;;;5007277;28;20495;-89
2022/12/21 11:05:45;;;;;;;32.60;19.03;;;8.90;92.80;;;;;;5040627;28;21144;-91
2022/12/21 11:08:14;;;;;;;34.43;19.07;;;9.00;92.30;;;;;;5007867;28;20492;-90
2022/12/21 11:11:01;;;;;;;34.70;20.50;;;8.90;92.00;;;;;;5039707;28;20416;-89
2022/12/21 11:13:29;;;;;;;37.78;21.33;;;8.90;91.90;;;;;;5040920;28;20423;-91
2022/12/21 11:16:18;;;;;;;35.55;20.95;;;8.80;92.40;;;;;;5040695;28;20421;-90
2022/12/21 11:18:49;;;;;;;37.88;21.25;;;8.80;92.50;;;;;;5006762;28;20409;-89
2022/12/21 11:21:33;;;;;;;36.47;21.90;;;8.90;92.90;;;;;;5039687;28;20459;-90
2022/12/21 11:24:03;;;;;;;36.07;21.07;;;8.90;92.90;;;;;;5038239;28;20425;-88
2022/12/21 11:26:35;;;;;;;36.88;21.70;;;8.90;92.30;;;;;;5039434;28;20405;-88
2022/12/21 11:29:07;;;;;;;35.40;20.33;;;8.90;92.30;;;;;;5023377;28;20453;-90
2022/12/21 11:31:35;;;;;;;34.00;19.25;;;8.90;91.90;;;;;;5005967;28;20420;-88
2022/12/21 11:34:01;;;;;;;37.47;20.15;;;8.80;92.00;;;;;;5039411;28;20533;-88
2022/12/21 11:36:26;;;;;;;32.23;19.23;;;8.70;92.10;;;;;;5022678;28;20432;-88
2022/12/21 11:38:52;;;;;;;32.67;18.73;;;8.60;92.00;;;;;;5005565;28;20425;-89
2022/12/21 11:41:26;;;;;;;32.50;19.13;;;8.60;92.30;;;;;;5038913;28;20960;-89
2022/12/21 11:43:52;;;;;;;34.20;19.80;;;8.70;92.20;;;;;;5022308;28;20415;-88
2022/12/21 11:46:24;;;;;;;36.90;19.08;;;8.70;92.20;;;;;;5022759;28;20409;-89
2022/12/21 11:49:08;;;;;;;28.95;18.52;;;8.90;92.10;;;;;;5038469;28;20427;-88
2022/12/21 11:51:52;;;;;;;30.67;18.23;;;9.00;91.90;;;;;;5038876;28;20413;-87
2022/12/21 11:54:41;;;;;;;29.08;16.02;;;9.10;91.80;;;;;;5038489;28;20413;-89
2022/12/21 11:57:25;;;;;;;29.27;16.83;;;9.20;91.20;;;;;;5037929;28;20424;-88
2022/12/21 11:59:50;;;;;;;28.40;15.73;;;9.30;90.90;;;;;;5038759;28;20431;-88
2022/12/21 12:02:30;;;;;;;28.30;16.03;;;9.40;90.80;;;;;;5038335;28;20815;-88
2022/12/21 12:05:24;;;;;;;27.90;15.63;;;9.50;91.00;;;;;;5038602;28;20539;-89
2022/12/21 12:07:52;;;;;;;28.25;14.82;;;9.60;90.40;;;;;;5039238;28;20838;-87
2022/12/21 12:10:37;;;;;;;28.63;15.55;;;9.80;89.90;;;;;;5037388;28;20413;-89
2022/12/21 12:13:28;;;;;;;25.80;15.27;;;9.90;90.00;;;;;;5037440;28;20982;-88
2022/12/21 12:16:02;;;;;;;26.70;15.23;;;10.00;89.60;;;;;;5038365;28;20470;-88
2022/12/21 12:18:49;;;;;;;28.65;15.05;;;10.30;88.70;;;;;;5037877;28;20409;-88
2022/12/21 12:21:42;;;;;;;26.98;15.45;;;10.50;87.80;;;;;;5038711;28;20448;-88
2022/12/21 12:24:45;;;;;;;25.52;16.05;;;10.60;87.00;;;;;;5037156;28;20920;-87
2022/12/21 12:27:24;;;;;;;29.30;15.70;;;10.60;86.90;;;;;;4971026;28;20413;-87
2022/12/21 12:29:58;;;;;;;25.65;15.25;;;10.50;87.40;;;;;;5022051;28;20742;-88
2022/12/21 12:32:50;;;;;;;26.58;14.75;;;10.40;87.70;;;;;;5037698;28;20421;-86
2022/12/21 12:35:45;;;;;;;27.05;15.55;;;10.20;87.80;;;;;;5033356;28;20476;-87
2022/12/21 12:38:20;;;;;;;26.45;15.77;;;10.10;88.40;;;;;;5002582;28;20929;-89
2022/12/21 12:40:58;;;;;;;28.85;15.68;;;10.00;89.30;;;;;;5027324;28;20492;-88
2022/12/21 12:43:54;;;;;;;25.27;15.05;;;9.80;90.00;;;;;;4974067;28;20774;-90
2022/12/21 12:46:29;;;;;;;30.55;15.02;;;9.80;90.20;;;;;;4996057;28;20415;-91
2022/12/21 12:49:21;;;;;;;25.00;15.75;;;9.80;90.40;;;;;;4977360;28;20425;-88
2022/12/21 12:51:56;;;;;;;28.60;15.73;;;9.80;90.30;;;;;;4978969;28;20413;-89
2022/12/21 12:54:31;;;;;;;25.95;16.10;;;9.90;90.20;;;;;;5004556;28;20421;-88
2022/12/21 12:57:12;;;;;;;27.00;16.50;;;9.90;90.00;;;;;;5004383;28;20519;-88
2022/12/21 12:59:47;;;;;;;30.35;17.70;;;9.80;90.20;;;;;;5004654;28;20491;-89
2022/12/21 13:02:35;;;;;;;32.17;18.15;;;9.60;90.60;;;;;;5004135;28;20496;-87
2022/12/21 13:05:25;;;;;;;31.92;19.95;;;9.50;90.90;;;;;;5004142;28;20455;-88
2022/12/21 13:08:03;;;;;;;31.70;18.77;;;9.40;91.30;;;;;;5003982;28;20444;-88
2022/12/21 13:10:37;;;;;;;34.22;21.40;;;9.40;91.30;;;;;;4988024;28;20413;-89